Time;durP1;ratioP1;P1;durP2;ratioP2;P2;SDS_P1;SDS_P2;PMS_P1;PMS_P2;Temp;Humidity;BMP_temperature;BMP_pressure;BME280_temperature;BME280_humidity;BME280_pressure;Samples;Min_cycle;Max_cycle;Signal;HPM_P1;HPM_P2
2023/11/22 09:48:15;;;;;;;6.00;4.07;;;;;;;4.15;71.30;100075.81;5121709;27;21068;-88
2023/11/22 09:50:51;;;;;;;5.17;3.90;;;;;;;5.30;67.53;100093.75;5084928;28;40433;-84
2023/11/22 09:53:26;;;;;;;5.77;3.73;;;;;;;6.49;63.05;100094.41;5071270;28;42344;-83
2023/11/22 09:55:54;;;;;;;5.83;3.70;;;;;;;7.47;61.76;100124.16;5070136;28;41756;-83
2023/11/22 09:58:22;;;;;;;5.07;3.40;;;;;;;8.26;59.52;100100.56;5070770;28;41037;-87
2023/11/22 10:00:50;;;;;;;6.20;4.20;;;;;;;9.13;55.39;100127.47;5070314;28;38967;-85
2023/11/22 10:03:20;;;;;;;5.10;4.13;;;;;;;9.80;52.86;100113.47;5070640;28;42027;-87
2023/11/22 10:05:48;;;;;;;6.27;3.77;;;;;;;12.34;48.00;100148.19;5070545;28;42023;-85
2023/11/22 10:08:17;;;;;;;5.50;4.30;;;;;;;14.25;44.35;100153.06;5070247;28;42225;-85
2023/11/22 10:10:47;;;;;;;4.23;3.60;;;;;;;15.39;40.73;100164.09;5087013;28;40217;-89
2023/11/22 10:13:15;;;;;;;5.63;3.73;;;;;;;17.53;38.28;100157.09;5071714;28;40685;-88
2023/11/22 10:15:43;;;;;;;5.73;3.83;;;;;;;18.65;35.69;100172.19;5071228;28;42029;-86
2023/11/22 10:18:11;;;;;;;5.07;3.17;;;;;;;18.87;32.10;100188.38;5071338;28;41129;-87
2023/11/22 10:20:43;;;;;;;5.93;3.87;;;;;;;18.09;32.92;100182.53;5071427;28;38813;-88
2023/11/22 10:23:13;;;;;;;3.97;3.30;;;;;;;16.74;34.46;100160.75;5070973;28;41352;-86
2023/11/22 10:25:47;;;;;;;4.00;3.60;;;;;;;15.88;34.83;100191.31;5070990;28;42185;-87
2023/11/22 10:28:15;;;;;;;3.87;3.33;;;;;;;17.19;33.68;100175.50;5071302;28;41141;-86
2023/11/22 10:30:43;;;;;;;4.60;3.80;;;;;;;17.34;34.45;100172.72;5071361;28;39274;-88
2023/11/22 10:33:15;;;;;;;3.30;2.90;;;;;;;16.26;34.27;100178.19;5071056;28;41438;-89
2023/11/22 10:35:45;;;;;;;3.47;2.70;;;;;;;15.40;35.52;100182.69;5071647;28;41869;-89
2023/11/22 10:38:15;;;;;;;4.10;3.30;;;;;;;14.54;35.90;100180.75;5086944;28;42739;-86
2023/11/22 10:40:44;;;;;;;4.07;3.10;;;;;;;13.78;39.15;100158.38;5069480;28;38878;-85
2023/11/22 10:43:13;;;;;;;4.33;3.80;;;;;;;13.16;39.90;100170.59;5070023;28;41044;-84
2023/11/22 10:45:44;;;;;;;3.40;2.90;;;;;;;12.69;41.05;100161.50;5069242;28;41767;-87
2023/11/22 10:48:15;;;;;;;3.33;2.93;;;;;;;12.06;41.19;100148.66;5069496;28;41241;-85
2023/11/22 10:50:45;;;;;;;4.07;3.57;;;;;;;11.78;41.87;100180.94;5070049;28;39062;-84
2023/11/22 10:53:16;;;;;;;3.50;3.20;;;;;;;11.31;41.48;100158.31;5069982;28;41959;-88
2023/11/22 10:55:47;;;;;;;3.50;3.10;;;;;;;11.02;41.92;100162.25;5069361;28;41679;-84
2023/11/22 10:58:16;;;;;;;4.17;3.13;;;;;;;10.58;43.33;100135.03;5076276;28;42821;-87
2023/11/22 11:00:47;;;;;;;3.40;3.10;;;;;;;10.46;43.93;100135.53;5056022;28;38809;-85
2023/11/22 11:03:18;;;;;;;3.87;3.27;;;;;;;10.37;44.59;100126.19;5056131;28;40807;-85
2023/11/22 11:05:53;;;;;;;4.07;3.30;;;;;;;10.19;44.01;100124.28;5072830;28;42568;-82
2023/11/22 11:08:24;;;;;;;4.90;2.90;;;;;;;10.09;44.04;100121.13;5055719;28;41309;-85
2023/11/22 11:10:52;;;;;;;3.97;3.53;;;;;;;10.29;44.64;100122.97;5055676;28;40002;-83
2023/11/22 11:13:20;;;;;;;4.90;3.10;;;;;;;10.34;44.97;100111.28;5057125;28;41148;-84
2023/11/22 11:15:48;;;;;;;3.33;3.00;;;;;;;10.42;44.36;100126.84;5056701;28;41849;-85
2023/11/22 11:18:16;;;;;;;3.33;2.80;;;;;;;10.26;45.49;100137.19;5056660;28;41662;-86
2023/11/22 11:20:49;;;;;;;4.83;3.27;;;;;;;9.84;43.99;100142.41;5056753;28;40251;-87
2023/11/22 11:23:19;;;;;;;4.37;3.50;;;;;;;9.65;44.61;100152.81;5056794;28;40740;-86
2023/11/22 11:25:49;;;;;;;4.70;3.50;;;;;;;9.48;45.23;100149.97;5054324;28;41933;-87
2023/11/22 11:28:16;;;;;;;4.17;3.33;;;;;;;9.34;46.83;100131.09;5055458;28;42153;-86
2023/11/22 11:30:49;;;;;;;3.63;2.97;;;;;;;9.37;47.14;100144.22;5055275;28;39327;-87
2023/11/22 11:33:19;;;;;;;4.77;3.30;;;;;;;9.17;46.02;100137.00;5055640;28;41201;-84
2023/11/22 11:35:49;;;;;;;4.20;3.23;;;;;;;9.09;46.68;100144.34;5055228;28;44420;-87
2023/11/22 11:38:21;;;;;;;3.80;3.40;;;;;;;9.16;47.64;100152.91;5072242;28;42829;-85
2023/11/22 11:40:50;;;;;;;4.10;3.23;;;;;;;9.28;46.74;100168.31;5072053;28;40285;-88
2023/11/22 11:43:22;;;;;;;3.47;2.90;;;;;;;9.22;46.06;100142.13;5055938;28;41104;-87
2023/11/22 11:45:50;;;;;;;4.43;3.87;;;;;;;9.37;45.98;100162.72;5054468;28;42124;-86
2023/11/22 11:48:20;;;;;;;5.07;3.43;;;;;;;9.51;45.73;100165.72;5055154;28;42139;-85
2023/11/22 11:50:49;;;;;;;4.60;3.37;;;;;;;9.90;45.82;100194.19;5055070;28;39884;-83
2023/11/22 11:53:20;;;;;;;4.63;3.13;;;;;;;9.93;44.70;100210.84;5056082;28;43018;-85
2023/11/22 11:55:51;;;;;;;4.07;3.47;;;;;;;9.75;45.27;100200.09;5054523;28;42405;-83
2023/11/22 11:58:19;;;;;;;4.13;3.47;;;;;;;9.65;46.19;100186.34;5055458;28;42122;-89
2023/11/22 12:00:46;;;;;;;5.70;3.40;;;;;;;9.55;45.79;100196.41;5054848;28;40348;-85
2023/11/22 12:03:19;;;;;;;4.30;3.37;;;;;;;9.61;46.16;100193.53;5072002;28;42001;-87
2023/11/22 12:05:50;;;;;;;4.70;3.03;;;;;;;9.64;46.11;100201.34;5054932;28;44883;-84
2023/11/22 12:08:18;;;;;;;3.03;2.70;;;;;;;9.43;46.05;100183.63;5054969;28;41884;-86
2023/11/22 12:10:48;;;;;;;3.47;3.17;;;;;;;9.48;45.88;100191.41;5070342;28;40427;-85
2023/11/22 12:13:18;;;;;;;3.77;3.10;;;;;;;9.39;46.75;100182.03;5055714;28;42977;-86
2023/11/22 12:15:46;;;;;;;12.37;8.40;;;;;;;9.26;46.86;100175.47;5055484;28;43413;-86
2023/11/22 12:18:13;;;;;;;8.17;5.20;;;;;;;9.16;47.46;100169.63;5056068;28;42536;-84
2023/11/22 12:20:42;;;;;;;4.20;3.53;;;;;;;9.10;47.71;100171.63;5072685;28;38823;-86
2023/11/22 12:23:11;;;;;;;3.17;2.80;;;;;;;9.04;47.41;100164.78;5055918;28;41757;-86
2023/11/22 12:25:39;;;;;;;5.73;3.20;;;;;;;8.88;47.39;100163.59;5056999;28;42558;-88
2023/11/22 12:28:06;;;;;;;4.33;3.33;;;;;;;8.61;47.42;100146.91;5059600;28;41240;-85
2023/11/22 12:30:35;;;;;;;3.23;2.77;;;;;;;8.52;47.22;100140.19;5064146;28;40598;-82
2023/11/22 12:33:05;;;;;;;3.83;3.00;;;;;;;8.54;48.03;100146.25;5061887;28;40617;-85
2023/11/22 12:35:33;;;;;;;3.90;3.30;;;;;;;8.48;47.99;100148.25;5056377;28;42873;-86
2023/11/22 12:38:02;;;;;;;3.30;3.00;;;;;;;8.28;48.21;100156.81;5055718;28;43894;-86
2023/11/22 12:40:32;;;;;;;3.37;3.03;;;;;;;8.26;48.79;100133.09;5055504;28;39102;-84
2023/11/22 12:43:01;;;;;;;3.47;2.97;;;;;;;8.39;49.17;100132.72;5054562;28;40657;-86
2023/11/22 12:45:32;;;;;;;3.77;3.30;;;;;;;8.39;49.09;100128.31;5071423;28;41661;-85
2023/11/22 12:48:00;;;;;;;4.17;3.30;;;;;;;8.23;49.09;100114.72;5054282;28;41154;-84
2023/11/22 12:50:31;;;;;;;3.63;3.13;;;;;;;8.26;49.98;100122.53;5053861;28;39277;-87
2023/11/22 12:52:59;;;;;;;4.43;3.07;;;;;;;8.17;49.40;100140.41;5054704;28;41002;-86
2023/11/22 12:55:26;;;;;;;4.67;3.20;;;;;;;7.94;49.21;100127.97;5054118;28;43251;-84
2023/11/22 12:58:02;;;;;;;5.33;3.50;;;;;;;7.91;49.45;100139.47;5054081;28;41170;-83
2023/11/22 13:00:30;;;;;;;4.47;3.50;;;;;;;7.84;49.83;100129.16;5054011;28;40430;-88
2023/11/22 13:02:58;;;;;;;3.80;3.37;;;;;;;7.81;49.46;100138.03;5054166;28;41207;-84
2023/11/22 13:05:26;;;;;;;3.63;3.07;;;;;;;7.83;49.41;100127.44;5070873;28;42722;-85
2023/11/22 13:07:53;;;;;;;4.90;3.60;;;;;;;7.83;49.90;100115.13;5053604;28;42994;-87
2023/11/22 13:10:25;;;;;;;3.80;3.17;;;;;;;7.97;50.14;100119.97;5053869;28;39683;-86
2023/11/22 13:12:54;;;;;;;5.07;3.60;;;;;;;8.03;50.79;100093.41;5071895;28;42713;-84
2023/11/22 13:15:25;;;;;;;5.63;3.27;;;;;;;8.12;51.04;100113.34;5055069;28;42587;-85
2023/11/22 13:17:55;;;;;;;4.50;3.70;;;;;;;7.91;51.04;100083.25;5054621;28;41423;-86
2023/11/22 13:20:25;;;;;;;4.27;3.27;;;;;;;7.99;51.08;100091.75;5055103;28;40270;-88
2023/11/22 13:22:53;;;;;;;3.70;3.00;;;;;;;8.02;51.48;100083.75;5054845;28;40783;-87
2023/11/22 13:25:20;;;;;;;3.83;2.97;;;;;;;7.99;51.83;100075.94;5071570;28;43569;-85
2023/11/22 13:27:48;;;;;;;5.23;3.67;;;;;;;8.18;51.37;100100.78;5053864;28;42368;-85
2023/11/22 13:30:19;;;;;;;5.47;3.43;;;;;;;8.16;51.05;100089.41;5052882;28;39126;-86
2023/11/22 13:32:49;;;;;;;6.30;3.30;;;;;;;8.06;51.76;100069.53;5053626;28;40464;-87
2023/11/22 13:35:17;;;;;;;3.40;2.93;;;;;;;7.95;52.11;100053.19;5053648;28;43159;-83
2023/11/22 13:37:47;;;;;;;3.57;2.93;;;;;;;8.00;51.80;100053.91;5059636;28;40939;-83
2023/11/22 13:40:16;;;;;;;4.40;3.67;;;;;;;7.94;51.67;100054.09;5076037;28;38953;-84
2023/11/22 13:42:44;;;;;;;5.50;4.10;;;;;;;7.98;51.55;100073.34;5060302;28;40849;-84
2023/11/22 13:45:15;;;;;;;6.00;3.90;;;;;;;7.93;51.90;100076.13;5059564;28;44284;-85
2023/11/22 13:47:47;;;;;;;3.63;3.20;;;;;;;7.79;51.52;100079.19;5060182;28;41205;-85
2023/11/22 13:50:18;;;;;;;3.83;3.23;;;;;;;7.68;51.32;100070.75;5070096;28;40800;-83
2023/11/22 13:52:46;;;;;;;4.10;3.23;;;;;;;7.66;51.71;100075.25;5053299;28;40453;-84
2023/11/22 13:55:15;;;;;;;5.27;3.60;;;;;;;7.68;52.18;100083.06;5053159;28;42924;-85
2023/11/22 13:57:43;;;;;;;5.10;3.47;;;;;;;7.75;52.63;100097.81;5052907;28;41554;-87
2023/11/22 14:00:18;;;;;;;3.83;3.40;;;;;;;7.81;52.27;100130.13;5053404;28;38873;-83
2023/11/22 14:02:46;;;;;;;4.37;3.40;;;;;;;7.77;52.61;100127.66;5053035;28;42122;-82
2023/11/22 14:05:15;;;;;;;4.40;3.47;;;;;;;7.62;52.57;100109.66;5052809;28;42654;-83
2023/11/22 14:07:45;;;;;;;4.27;3.23;;;;;;;7.58;53.11;100107.09;5052877;28;42274;-86
2023/11/22 14:10:16;;;;;;;5.57;3.70;;;;;;;7.54;53.24;100107.25;5053240;28;41692;-84
2023/11/22 14:12:44;;;;;;;4.57;3.27;;;;;;;7.57;53.15;100113.28;5053898;28;40576;-82
2023/11/22 14:15:12;;;;;;;5.23;3.53;;;;;;;7.63;53.29;100114.00;5054338;28;43238;-88
2023/11/22 14:17:41;;;;;;;3.80;3.40;;;;;;;7.61;52.98;100100.88;5053549;28;42989;-86
2023/11/22 14:20:11;;;;;;;4.57;3.10;;;;;;;7.45;52.87;100076.75;5054199;28;39198;-85
2023/11/22 14:22:40;;;;;;;5.30;3.03;;;;;;;7.45;52.82;100092.56;5070483;28;41906;-87
2023/11/22 14:25:11;;;;;;;6.90;3.30;;;;;;;7.49;52.47;100094.19;5070552;28;43210;-85
2023/11/22 14:27:39;;;;;;;5.63;3.47;;;;;;;7.45;52.63;100099.59;5054022;28;41118;-86
2023/11/22 14:30:09;;;;;;;4.53;2.80;;;;;;;7.33;52.52;100094.69;5053703;28;40049;-87
2023/11/22 14:32:37;;;;;;;3.83;3.00;;;;;;;7.40;53.04;100101.53;5054016;28;41704;-84
2023/11/22 14:35:07;;;;;;;4.03;2.87;;;;;;;7.38;53.43;100108.63;5057044;28;41626;-84
2023/11/22 14:37:35;;;;;;;4.13;3.00;;;;;;;7.28;53.59;100094.84;5057470;28;42321;-86
2023/11/22 14:40:04;;;;;;;5.20;3.13;;;;;;;7.20;53.59;100084.50;5056423;28;38934;-83
2023/11/22 14:42:33;;;;;;;4.73;3.00;;;;;;;7.09;53.24;100080.47;5055624;28;40903;-83
2023/11/22 14:45:01;;;;;;;4.87;3.57;;;;;;;7.09;53.37;100096.28;5055676;28;43580;-87
2023/11/22 14:47:30;;;;;;;4.77;3.43;;;;;;;6.93;53.46;100073.91;5055467;28;40887;-85
2023/11/22 14:49:58;;;;;;;4.10;3.20;;;;;;;6.94;53.51;100080.91;5055932;28;38864;-86
2023/11/22 14:52:25;;;;;;;3.30;2.87;;;;;;;6.94;54.10;100083.53;5055524;28;41848;-84
2023/11/22 14:54:54;;;;;;;3.70;3.07;;;;;;;6.83;54.61;100070.66;5055971;28;42885;-86
2023/11/22 14:57:22;;;;;;;2.80;2.53;;;;;;;6.81;54.43;100077.75;5055614;28;42549;-85
2023/11/22 14:59:51;;;;;;;4.40;2.80;;;;;;;6.67;54.31;100064.97;5055723;28;39157;-86
2023/11/22 15:02:19;;;;;;;3.67;2.90;;;;;;;6.64;54.80;100064.19;5072620;28;41820;-85
2023/11/22 15:04:47;;;;;;;3.90;3.10;;;;;;;6.71;55.11;100074.50;5055572;28;42014;-86
2023/11/22 15:07:14;;;;;;;3.47;2.77;;;;;;;6.56;55.25;100069.66;5055413;28;42469;-86
2023/11/22 15:09:43;;;;;;;3.00;2.73;;;;;;;6.55;55.35;100091.63;5055421;28;41709;-86
2023/11/22 15:12:10;;;;;;;3.47;2.67;;;;;;;6.47;55.39;100098.84;5057332;28;40773;-85
2023/11/22 15:14:38;;;;;;;3.10;2.80;;;;;;;6.53;55.79;100108.38;5062059;28;42503;-86
2023/11/22 15:17:07;;;;;;;3.97;3.07;;;;;;;6.40;56.00;100084.13;5089899;28;42367;-81
